sensor_id;sensor_type;location;lat;lon;timestamp;P1;durP1;ratioP1;P2;durP2;ratioP2
64789;SDS011;51223;51.816;5.862;2022-09-12T00:01:22;2.00;;;1.40;;
64789;SDS011;51223;51.816;5.862;2022-09-12T00:03:54;2.40;;;1.45;;
64789;SDS011;51223;51.816;5.862;2022-09-12T00:06:24;1.33;;;1.23;;
64789;SDS011;51223;51.816;5.862;2022-09-12T00:08:55;1.20;;;1.10;;
64789;SDS011;51223;51.816;5.862;2022-09-12T00:11:22;2.35;;;1.58;;
64789;SDS011;51223;51.816;5.862;2022-09-12T00:13:48;1.80;;;1.50;;
64789;SDS011;51223;51.816;5.862;2022-09-12T00:16:15;2.15;;;1.27;;
64789;SDS011;51223;51.816;5.862;2022-09-12T00:18:43;3.10;;;2.22;;
64789;SDS011;51223;51.816;5.862;2022-09-12T00:21:11;2.40;;;1.73;;
64789;SDS011;51223;51.816;5.862;2022-09-12T00:23:38;1.70;;;1.48;;
64789;SDS011;51223;51.816;5.862;2022-09-12T00:26:04;2.00;;;1.73;;
64789;SDS011;51223;51.816;5.862;2022-09-12T00:28:32;2.35;;;1.70;;
64789;SDS011;51223;51.816;5.862;2022-09-12T00:30:58;2.95;;;1.50;;
64789;SDS011;51223;51.816;5.862;2022-09-12T00:33:24;1.85;;;1.35;;
64789;SDS011;51223;51.816;5.862;2022-09-12T00:35:50;0.95;;;0.82;;
64789;SDS011;51223;51.816;5.862;2022-09-12T00:38:17;1.52;;;1.23;;
64789;SDS011;51223;51.816;5.862;2022-09-12T00:40:44;1.58;;;1.20;;
64789;SDS011;51223;51.816;5.862;2022-09-12T00:43:14;2.13;;;1.65;;
64789;SDS011;51223;51.816;5.862;2022-09-12T00:46:00;2.88;;;2.10;;
64789;SDS011;51223;51.816;5.862;2022-09-12T00:48:37;2.13;;;1.48;;
64789;SDS011;51223;51.816;5.862;2022-09-12T00:51:08;2.08;;;1.50;;
64789;SDS011;51223;51.816;5.862;2022-09-12T00:53:35;2.35;;;1.50;;
64789;SDS011;51223;51.816;5.862;2022-09-12T00:56:01;1.55;;;1.40;;
64789;SDS011;51223;51.816;5.862;2022-09-12T00:58:28;3.58;;;2.05;;
64789;SDS011;51223;51.816;5.862;2022-09-12T01:00:59;2.72;;;1.98;;
64789;SDS011;51223;51.816;5.862;2022-09-12T01:03:25;2.80;;;1.90;;
64789;SDS011;51223;51.816;5.862;2022-09-12T01:06:14;2.30;;;1.65;;
64789;SDS011;51223;51.816;5.862;2022-09-12T01:08:43;3.30;;;2.08;;
64789;SDS011;51223;51.816;5.862;2022-09-12T01:11:11;3.13;;;1.90;;
64789;SDS011;51223;51.816;5.862;2022-09-12T01:13:37;6.72;;;2.10;;
64789;SDS011;51223;51.816;5.862;2022-09-12T01:16:04;2.63;;;1.65;;
64789;SDS011;51223;51.816;5.862;2022-09-12T01:18:47;2.30;;;1.63;;
64789;SDS011;51223;51.816;5.862;2022-09-12T01:38:28;4.68;;;2.67;;
64789;SDS011;51223;51.816;5.862;2022-09-12T01:43:51;3.22;;;2.42;;
64789;SDS011;51223;51.816;5.862;2022-09-12T01:46:46;5.28;;;2.83;;
64789;SDS011;51223;51.816;5.862;2022-09-12T01:55:06;4.80;;;3.40;;
64789;SDS011;51223;51.816;5.862;2022-09-12T01:57:44;5.90;;;3.53;;
64789;SDS011;51223;51.816;5.862;2022-09-12T02:00:33;10.48;;;3.67;;
64789;SDS011;51223;51.816;5.862;2022-09-12T02:03:06;5.13;;;2.85;;
64789;SDS011;51223;51.816;5.862;2022-09-12T02:05:47;4.38;;;2.88;;
64789;SDS011;51223;51.816;5.862;2022-09-12T02:08:27;5.50;;;3.35;;
64789;SDS011;51223;51.816;5.862;2022-09-12T02:11:02;5.38;;;3.15;;
64789;SDS011;51223;51.816;5.862;2022-09-12T02:13:37;5.25;;;2.95;;
64789;SDS011;51223;51.816;5.862;2022-09-12T02:16:10;6.38;;;3.20;;
64789;SDS011;51223;51.816;5.862;2022-09-12T02:21:09;5.47;;;3.00;;
64789;SDS011;51223;51.816;5.862;2022-09-12T02:23:36;9.13;;;3.58;;
64789;SDS011;51223;51.816;5.862;2022-09-12T02:26:08;2.83;;;1.85;;
64789;SDS011;51223;51.816;5.862;2022-09-12T02:28:41;5.22;;;3.50;;
64789;SDS011;51223;51.816;5.862;2022-09-12T02:31:12;5.38;;;3.70;;
64789;SDS011;51223;51.816;5.862;2022-09-12T02:34:02;6.78;;;4.13;;
64789;SDS011;51223;51.816;5.862;2022-09-12T02:39:24;5.88;;;3.72;;
64789;SDS011;51223;51.816;5.862;2022-09-12T02:41:50;4.97;;;2.60;;
64789;SDS011;51223;51.816;5.862;2022-09-12T02:44:17;5.75;;;3.83;;
64789;SDS011;51223;51.816;5.862;2022-09-12T02:46:46;9.10;;;3.40;;
64789;SDS011;51223;51.816;5.862;2022-09-12T02:49:15;7.10;;;4.10;;
64789;SDS011;51223;51.816;5.862;2022-09-12T02:51:42;7.78;;;3.97;;
64789;SDS011;51223;51.816;5.862;2022-09-12T02:54:08;6.38;;;3.70;;
64789;SDS011;51223;51.816;5.862;2022-09-12T02:56:34;5.63;;;3.50;;
64789;SDS011;51223;51.816;5.862;2022-09-12T02:59:01;7.82;;;3.80;;
64789;SDS011;51223;51.816;5.862;2022-09-12T03:07:17;7.65;;;3.88;;
64789;SDS011;51223;51.816;5.862;2022-09-12T03:09:57;7.53;;;4.28;;
64789;SDS011;51223;51.816;5.862;2022-09-12T03:15:26;7.35;;;4.22;;
64789;SDS011;51223;51.816;5.862;2022-09-12T03:18:03;6.75;;;4.63;;
64789;SDS011;51223;51.816;5.862;2022-09-12T03:23:11;9.30;;;4.93;;
64789;SDS011;51223;51.816;5.862;2022-09-12T03:26:05;9.43;;;5.43;;
64789;SDS011;51223;51.816;5.862;2022-09-12T03:28:35;11.07;;;6.05;;
64789;SDS011;51223;51.816;5.862;2022-09-12T03:31:10;8.02;;;4.85;;
64789;SDS011;51223;51.816;5.862;2022-09-12T03:33:40;8.98;;;4.35;;
64789;SDS011;51223;51.816;5.862;2022-09-12T03:36:09;5.57;;;3.60;;
64789;SDS011;51223;51.816;5.862;2022-09-12T03:38:40;7.07;;;5.18;;
64789;SDS011;51223;51.816;5.862;2022-09-12T03:41:06;10.88;;;5.63;;
64789;SDS011;51223;51.816;5.862;2022-09-12T03:43:32;7.57;;;4.40;;
64789;SDS011;51223;51.816;5.862;2022-09-12T03:45:58;11.55;;;5.85;;
64789;SDS011;51223;51.816;5.862;2022-09-12T03:48:23;17.55;;;7.10;;
64789;SDS011;51223;51.816;5.862;2022-09-12T03:50:49;13.88;;;6.72;;
64789;SDS011;51223;51.816;5.862;2022-09-12T03:53:15;8.13;;;3.25;;
64789;SDS011;51223;51.816;5.862;2022-09-12T03:55:41;10.73;;;5.57;;
64789;SDS011;51223;51.816;5.862;2022-09-12T03:58:07;8.90;;;5.28;;
64789;SDS011;51223;51.816;5.862;2022-09-12T04:00:33;14.20;;;7.38;;
64789;SDS011;51223;51.816;5.862;2022-09-12T04:02:59;10.52;;;5.78;;
64789;SDS011;51223;51.816;5.862;2022-09-12T04:05:24;10.38;;;6.43;;
64789;SDS011;51223;51.816;5.862;2022-09-12T04:07:50;16.27;;;8.35;;
64789;SDS011;51223;51.816;5.862;2022-09-12T04:10:16;15.70;;;7.22;;
64789;SDS011;51223;51.816;5.862;2022-09-12T04:12:43;10.00;;;4.93;;
64789;SDS011;51223;51.816;5.862;2022-09-12T04:15:09;14.52;;;6.53;;
64789;SDS011;51223;51.816;5.862;2022-09-12T04:17:35;13.45;;;6.32;;
64789;SDS011;51223;51.816;5.862;2022-09-12T04:20:01;16.58;;;7.93;;
64789;SDS011;51223;51.816;5.862;2022-09-12T04:22:27;16.83;;;7.93;;
64789;SDS011;51223;51.816;5.862;2022-09-12T04:24:54;13.68;;;7.35;;
64789;SDS011;51223;51.816;5.862;2022-09-12T04:27:20;9.55;;;5.22;;
64789;SDS011;51223;51.816;5.862;2022-09-12T04:29:45;13.32;;;7.07;;
64789;SDS011;51223;51.816;5.862;2022-09-12T04:32:11;17.92;;;7.93;;
64789;SDS011;51223;51.816;5.862;2022-09-12T04:34:37;24.10;;;9.20;;
64789;SDS011;51223;51.816;5.862;2022-09-12T04:37:03;16.90;;;7.88;;
64789;SDS011;51223;51.816;5.862;2022-09-12T04:39:29;14.70;;;8.13;;
64789;SDS011;51223;51.816;5.862;2022-09-12T04:41:55;13.13;;;7.20;;
64789;SDS011;51223;51.816;5.862;2022-09-12T04:44:21;16.33;;;7.75;;
64789;SDS011;51223;51.816;5.862;2022-09-12T04:46:47;10.07;;;6.05;;
64789;SDS011;51223;51.816;5.862;2022-09-12T04:49:13;10.45;;;7.20;;
64789;SDS011;51223;51.816;5.862;2022-09-12T04:51:40;11.30;;;5.65;;
64789;SDS011;51223;51.816;5.862;2022-09-12T04:54:11;17.17;;;7.82;;
64789;SDS011;51223;51.816;5.862;2022-09-12T04:56:40;16.80;;;7.13;;
64789;SDS011;51223;51.816;5.862;2022-09-12T04:59:07;17.38;;;8.05;;
64789;SDS011;51223;51.816;5.862;2022-09-12T05:01:34;21.80;;;8.85;;
64789;SDS011;51223;51.816;5.862;2022-09-12T05:04:00;12.98;;;6.68;;
64789;SDS011;51223;51.816;5.862;2022-09-12T05:06:27;11.85;;;6.57;;
64789;SDS011;51223;51.816;5.862;2022-09-12T05:08:55;16.70;;;7.55;;
64789;SDS011;51223;51.816;5.862;2022-09-12T05:11:26;15.68;;;6.80;;
64789;SDS011;51223;51.816;5.862;2022-09-12T05:13:54;12.18;;;7.13;;
64789;SDS011;51223;51.816;5.862;2022-09-12T05:16:20;11.23;;;6.68;;
64789;SDS011;51223;51.816;5.862;2022-09-12T05:18:47;7.93;;;4.38;;
64789;SDS011;51223;51.816;5.862;2022-09-12T05:21:16;14.40;;;7.72;;
64789;SDS011;51223;51.816;5.862;2022-09-12T05:23:44;8.90;;;5.30;;
64789;SDS011;51223;51.816;5.862;2022-09-12T05:26:11;17.10;;;7.28;;
64789;SDS011;51223;51.816;5.862;2022-09-12T05:28:39;13.23;;;6.53;;
64789;SDS011;51223;51.816;5.862;2022-09-12T05:31:06;19.83;;;9.73;;
64789;SDS011;51223;51.816;5.862;2022-09-12T05:33:35;10.27;;;7.00;;
64789;SDS011;51223;51.816;5.862;2022-09-12T05:36:03;17.15;;;7.45;;
64789;SDS011;51223;51.816;5.862;2022-09-12T05:38:32;14.27;;;7.63;;
64789;SDS011;51223;51.816;5.862;2022-09-12T05:41:03;12.52;;;6.63;;
64789;SDS011;51223;51.816;5.862;2022-09-12T05:43:34;8.63;;;4.65;;
64789;SDS011;51223;51.816;5.862;2022-09-12T05:46:03;13.50;;;7.28;;
64789;SDS011;51223;51.816;5.862;2022-09-12T05:48:29;10.80;;;5.40;;
64789;SDS011;51223;51.816;5.862;2022-09-12T05:50:59;13.07;;;7.60;;
64789;SDS011;51223;51.816;5.862;2022-09-12T05:53:27;20.20;;;7.72;;
64789;SDS011;51223;51.816;5.862;2022-09-12T05:56:05;21.70;;;8.80;;
64789;SDS011;51223;51.816;5.862;2022-09-12T05:58:32;18.23;;;8.65;;
64789;SDS011;51223;51.816;5.862;2022-09-12T06:01:05;16.58;;;8.23;;
64789;SDS011;51223;51.816;5.862;2022-09-12T06:03:38;17.15;;;9.90;;
64789;SDS011;51223;51.816;5.862;2022-09-12T06:06:05;15.75;;;8.50;;
64789;SDS011;51223;51.816;5.862;2022-09-12T06:08:32;17.10;;;9.05;;
64789;SDS011;51223;51.816;5.862;2022-09-12T06:11:00;16.05;;;9.13;;
64789;SDS011;51223;51.816;5.862;2022-09-12T06:13:27;20.05;;;10.43;;
64789;SDS011;51223;51.816;5.862;2022-09-12T06:16:01;17.58;;;7.97;;
64789;SDS011;51223;51.816;5.862;2022-09-12T06:18:28;25.15;;;9.95;;
64789;SDS011;51223;51.816;5.862;2022-09-12T06:20:54;14.40;;;7.50;;
64789;SDS011;51223;51.816;5.862;2022-09-12T06:23:19;20.23;;;8.35;;
64789;SDS011;51223;51.816;5.862;2022-09-12T06:25:46;20.73;;;9.07;;
64789;SDS011;51223;51.816;5.862;2022-09-12T06:28:12;14.82;;;6.97;;
64789;SDS011;51223;51.816;5.862;2022-09-12T06:30:38;20.27;;;9.52;;
64789;SDS011;51223;51.816;5.862;2022-09-12T06:33:04;16.95;;;9.10;;
64789;SDS011;51223;51.816;5.862;2022-09-12T06:35:30;16.52;;;8.90;;
64789;SDS011;51223;51.816;5.862;2022-09-12T06:38:00;18.20;;;9.48;;
64789;SDS011;51223;51.816;5.862;2022-09-12T06:40:26;22.27;;;8.45;;
64789;SDS011;51223;51.816;5.862;2022-09-12T06:42:52;16.17;;;9.52;;
64789;SDS011;51223;51.816;5.862;2022-09-12T06:45:18;23.70;;;10.00;;
64789;SDS011;51223;51.816;5.862;2022-09-12T06:47:45;18.13;;;9.60;;
64789;SDS011;51223;51.816;5.862;2022-09-12T06:50:11;13.75;;;8.15;;
64789;SDS011;51223;51.816;5.862;2022-09-12T06:52:37;18.45;;;9.68;;
64789;SDS011;51223;51.816;5.862;2022-09-12T06:55:03;15.93;;;8.68;;
64789;SDS011;51223;51.816;5.862;2022-09-12T06:57:29;21.10;;;8.90;;
64789;SDS011;51223;51.816;5.862;2022-09-12T06:59:55;19.23;;;9.27;;
64789;SDS011;51223;51.816;5.862;2022-09-12T07:02:21;19.48;;;9.38;;
64789;SDS011;51223;51.816;5.862;2022-09-12T07:04:50;20.23;;;9.38;;
64789;SDS011;51223;51.816;5.862;2022-09-12T07:07:16;18.77;;;9.65;;
64789;SDS011;51223;51.816;5.862;2022-09-12T07:09:42;18.75;;;10.13;;
64789;SDS011;51223;51.816;5.862;2022-09-12T07:12:09;18.83;;;8.82;;
64789;SDS011;51223;51.816;5.862;2022-09-12T07:14:34;20.15;;;10.50;;
64789;SDS011;51223;51.816;5.862;2022-09-12T07:17:00;15.73;;;7.93;;
64789;SDS011;51223;51.816;5.862;2022-09-12T07:19:26;19.85;;;9.23;;
64789;SDS011;51223;51.816;5.862;2022-09-12T07:21:52;11.05;;;6.25;;
64789;SDS011;51223;51.816;5.862;2022-09-12T07:24:18;11.48;;;6.80;;
64789;SDS011;51223;51.816;5.862;2022-09-12T07:26:43;14.88;;;7.88;;
64789;SDS011;51223;51.816;5.862;2022-09-12T07:29:13;15.15;;;7.85;;
64789;SDS011;51223;51.816;5.862;2022-09-12T07:31:43;19.45;;;8.55;;
64789;SDS011;51223;51.816;5.862;2022-09-12T07:34:09;15.93;;;8.38;;
64789;SDS011;51223;51.816;5.862;2022-09-12T07:36:35;16.95;;;8.20;;
64789;SDS011;51223;51.816;5.862;2022-09-12T07:39:02;13.80;;;7.78;;
64789;SDS011;51223;51.816;5.862;2022-09-12T07:41:28;13.88;;;7.82;;
64789;SDS011;51223;51.816;5.862;2022-09-12T07:43:56;18.20;;;7.13;;
64789;SDS011;51223;51.816;5.862;2022-09-12T07:46:24;14.73;;;8.57;;
64789;SDS011;51223;51.816;5.862;2022-09-12T07:48:51;12.82;;;6.82;;
64789;SDS011;51223;51.816;5.862;2022-09-12T07:51:19;8.30;;;2.10;;
64789;SDS011;51223;51.816;5.862;2022-09-12T07:53:45;10.70;;;6.05;;
64789;SDS011;51223;51.816;5.862;2022-09-12T07:56:11;7.70;;;4.50;;
64789;SDS011;51223;51.816;5.862;2022-09-12T07:58:38;4.63;;;3.10;;
64789;SDS011;51223;51.816;5.862;2022-09-12T08:03:35;12.07;;;6.38;;
64789;SDS011;51223;51.816;5.862;2022-09-12T08:06:02;10.00;;;6.13;;
64789;SDS011;51223;51.816;5.862;2022-09-12T08:08:29;10.02;;;5.13;;
64789;SDS011;51223;51.816;5.862;2022-09-12T08:10:58;9.88;;;6.57;;
64789;SDS011;51223;51.816;5.862;2022-09-12T08:13:28;11.90;;;5.03;;
64789;SDS011;51223;51.816;5.862;2022-09-12T08:15:57;10.95;;;5.47;;
64789;SDS011;51223;51.816;5.862;2022-09-12T08:18:25;12.82;;;5.63;;
64789;SDS011;51223;51.816;5.862;2022-09-12T08:20:55;4.45;;;2.92;;
64789;SDS011;51223;51.816;5.862;2022-09-12T08:23:22;5.55;;;2.38;;
64789;SDS011;51223;51.816;5.862;2022-09-12T08:25:48;11.73;;;6.18;;
64789;SDS011;51223;51.816;5.862;2022-09-12T08:28:14;10.10;;;5.93;;
64789;SDS011;51223;51.816;5.862;2022-09-12T08:30:40;5.88;;;3.17;;
64789;SDS011;51223;51.816;5.862;2022-09-12T08:33:06;16.42;;;7.07;;
64789;SDS011;51223;51.816;5.862;2022-09-12T08:35:32;6.63;;;4.00;;
64789;SDS011;51223;51.816;5.862;2022-09-12T08:37:58;9.05;;;6.00;;
64789;SDS011;51223;51.816;5.862;2022-09-12T08:40:24;6.32;;;3.25;;
64789;SDS011;51223;51.816;5.862;2022-09-12T08:42:57;11.50;;;6.13;;
64789;SDS011;51223;51.816;5.862;2022-09-12T08:45:34;6.88;;;4.00;;
64789;SDS011;51223;51.816;5.862;2022-09-12T08:48:04;14.73;;;6.65;;
64789;SDS011;51223;51.816;5.862;2022-09-12T08:50:33;10.63;;;7.03;;
64789;SDS011;51223;51.816;5.862;2022-09-12T08:53:10;13.20;;;6.97;;
64789;SDS011;51223;51.816;5.862;2022-09-12T08:58:15;9.35;;;5.85;;
64789;SDS011;51223;51.816;5.862;2022-09-12T09:03:31;14.05;;;7.93;;
64789;SDS011;51223;51.816;5.862;2022-09-12T09:09:05;7.72;;;4.00;;
64789;SDS011;51223;51.816;5.862;2022-09-12T09:11:40;10.25;;;6.03;;
64789;SDS011;51223;51.816;5.862;2022-09-12T09:17:15;7.88;;;4.82;;
64789;SDS011;51223;51.816;5.862;2022-09-12T09:19:54;11.52;;;6.47;;
64789;SDS011;51223;51.816;5.862;2022-09-12T09:25:18;8.25;;;3.67;;
64789;SDS011;51223;51.816;5.862;2022-09-12T09:28:00;12.68;;;6.22;;
64789;SDS011;51223;51.816;5.862;2022-09-12T09:30:30;5.93;;;4.03;;
64789;SDS011;51223;51.816;5.862;2022-09-12T09:33:00;9.98;;;5.15;;
64789;SDS011;51223;51.816;5.862;2022-09-12T09:35:45;4.70;;;3.17;;
64789;SDS011;51223;51.816;5.862;2022-09-12T09:38:33;10.75;;;5.85;;
64789;SDS011;51223;51.816;5.862;2022-09-12T09:43:55;8.73;;;5.70;;
64789;SDS011;51223;51.816;5.862;2022-09-12T09:46:22;8.48;;;5.82;;
64789;SDS011;51223;51.816;5.862;2022-09-12T09:48:49;6.45;;;3.95;;
64789;SDS011;51223;51.816;5.862;2022-09-12T09:51:16;7.70;;;5.13;;
64789;SDS011;51223;51.816;5.862;2022-09-12T09:59:08;8.45;;;4.53;;
64789;SDS011;51223;51.816;5.862;2022-09-12T10:01:52;10.52;;;5.55;;
64789;SDS011;51223;51.816;5.862;2022-09-12T10:04:25;7.93;;;5.32;;
64789;SDS011;51223;51.816;5.862;2022-09-12T10:06:57;15.48;;;3.97;;
64789;SDS011;51223;51.816;5.862;2022-09-12T10:09:25;4.72;;;3.25;;
64789;SDS011;51223;51.816;5.862;2022-09-12T10:11:53;11.95;;;4.45;;
64789;SDS011;51223;51.816;5.862;2022-09-12T10:14:28;8.57;;;4.45;;
64789;SDS011;51223;51.816;5.862;2022-09-12T10:16:54;2.85;;;2.30;;
64789;SDS011;51223;51.816;5.862;2022-09-12T10:19:23;6.57;;;4.40;;
64789;SDS011;51223;51.816;5.862;2022-09-12T10:21:58;6.68;;;4.55;;
64789;SDS011;51223;51.816;5.862;2022-09-12T10:24:26;7.53;;;4.50;;
64789;SDS011;51223;51.816;5.862;2022-09-12T10:27:14;5.32;;;3.65;;
64789;SDS011;51223;51.816;5.862;2022-09-12T10:29:45;8.43;;;4.57;;
64789;SDS011;51223;51.816;5.862;2022-09-12T10:32:23;4.40;;;3.03;;
64789;SDS011;51223;51.816;5.862;2022-09-12T10:34:52;8.20;;;4.53;;
64789;SDS011;51223;51.816;5.862;2022-09-12T10:37:27;5.03;;;3.53;;
64789;SDS011;51223;51.816;5.862;2022-09-12T10:39:56;6.60;;;3.88;;
64789;SDS011;51223;51.816;5.862;2022-09-12T10:45:40;3.22;;;1.85;;
64789;SDS011;51223;51.816;5.862;2022-09-12T10:48:21;4.35;;;2.97;;
64789;SDS011;51223;51.816;5.862;2022-09-12T10:50:51;5.90;;;4.28;;
64789;SDS011;51223;51.816;5.862;2022-09-12T10:53:21;4.45;;;3.05;;
64789;SDS011;51223;51.816;5.862;2022-09-12T10:56:15;8.10;;;4.45;;
64789;SDS011;51223;51.816;5.862;2022-09-12T11:04:13;4.25;;;2.85;;
64789;SDS011;51223;51.816;5.862;2022-09-12T11:07:04;4.90;;;2.63;;
64789;SDS011;51223;51.816;5.862;2022-09-12T11:12:23;6.35;;;3.05;;
64789;SDS011;51223;51.816;5.862;2022-09-12T11:18:22;3.70;;;2.70;;
64789;SDS011;51223;51.816;5.862;2022-09-12T11:21:04;6.32;;;2.80;;
64789;SDS011;51223;51.816;5.862;2022-09-12T11:26:47;2.25;;;2.03;;
64789;SDS011;51223;51.816;5.862;2022-09-12T11:40:15;5.28;;;2.20;;
64789;SDS011;51223;51.816;5.862;2022-09-12T11:43:06;2.38;;;1.67;;
64789;SDS011;51223;51.816;5.862;2022-09-12T11:45:41;5.63;;;1.90;;
64789;SDS011;51223;51.816;5.862;2022-09-12T11:48:11;3.00;;;2.28;;
64789;SDS011;51223;51.816;5.862;2022-09-12T11:53:11;1.83;;;1.33;;
64789;SDS011;51223;51.816;5.862;2022-09-12T11:55:48;2.33;;;1.67;;
64789;SDS011;51223;51.816;5.862;2022-09-12T11:58:23;1.80;;;1.20;;
64789;SDS011;51223;51.816;5.862;2022-09-12T12:00:54;0.98;;;0.88;;
64789;SDS011;51223;51.816;5.862;2022-09-12T12:03:35;2.55;;;2.05;;
64789;SDS011;51223;51.816;5.862;2022-09-12T12:06:27;3.58;;;2.20;;
64789;SDS011;51223;51.816;5.862;2022-09-12T12:08:54;1.23;;;1.13;;
64789;SDS011;51223;51.816;5.862;2022-09-12T12:11:43;4.70;;;2.40;;
64789;SDS011;51223;51.816;5.862;2022-09-12T12:14:16;3.58;;;2.47;;
64789;SDS011;51223;51.816;5.862;2022-09-12T12:17:00;4.70;;;2.20;;
64789;SDS011;51223;51.816;5.862;2022-09-12T12:19:30;5.82;;;2.33;;
64789;SDS011;51223;51.816;5.862;2022-09-12T12:22:17;5.70;;;2.72;;
64789;SDS011;51223;51.816;5.862;2022-09-12T12:38:00;5.40;;;1.48;;
64789;SDS011;51223;51.816;5.862;2022-09-12T12:40:27;1.58;;;1.13;;
64789;SDS011;51223;51.816;5.862;2022-09-12T12:48:07;2.40;;;1.83;;
64789;SDS011;51223;51.816;5.862;2022-09-12T12:50:35;8.90;;;2.47;;
64789;SDS011;51223;51.816;5.862;2022-09-12T12:53:05;1.80;;;1.60;;
64789;SDS011;51223;51.816;5.862;2022-09-12T13:03:53;6.28;;;2.38;;
64789;SDS011;51223;51.816;5.862;2022-09-12T13:06:39;5.00;;;2.47;;
64789;SDS011;51223;51.816;5.862;2022-09-12T13:09:08;4.20;;;2.28;;
64789;SDS011;51223;51.816;5.862;2022-09-12T13:11:45;0.82;;;0.82;;
64789;SDS011;51223;51.816;5.862;2022-09-12T13:17:30;1.98;;;1.42;;
64789;SDS011;51223;51.816;5.862;2022-09-12T13:20:44;3.40;;;1.98;;
64789;SDS011;51223;51.816;5.862;2022-09-12T13:22:53;2.40;;;1.38;;
64789;SDS011;51223;51.816;5.862;2022-09-12T13:25:26;1.42;;;1.23;;
64789;SDS011;51223;51.816;5.862;2022-09-12T13:30:22;1.52;;;1.30;;
64789;SDS011;51223;51.816;5.862;2022-09-12T13:32:48;4.90;;;2.67;;
64789;SDS011;51223;51.816;5.862;2022-09-12T13:38:25;2.08;;;1.20;;
64789;SDS011;51223;51.816;5.862;2022-09-12T13:43:44;4.43;;;2.13;;
64789;SDS011;51223;51.816;5.862;2022-09-12T13:46:16;3.30;;;2.20;;
64789;SDS011;51223;51.816;5.862;2022-09-12T13:51:18;1.40;;;1.30;;
64789;SDS011;51223;51.816;5.862;2022-09-12T13:53:48;2.58;;;1.85;;
64789;SDS011;51223;51.816;5.862;2022-09-12T13:56:16;4.68;;;1.45;;
64789;SDS011;51223;51.816;5.862;2022-09-12T13:58:50;4.95;;;2.03;;
64789;SDS011;51223;51.816;5.862;2022-09-12T14:01:18;1.95;;;1.27;;
64789;SDS011;51223;51.816;5.862;2022-09-12T14:09:13;2.45;;;1.13;;
64789;SDS011;51223;51.816;5.862;2022-09-12T14:11:50;1.10;;;1.00;;
64789;SDS011;51223;51.816;5.862;2022-09-12T14:14:18;1.45;;;1.20;;
64789;SDS011;51223;51.816;5.862;2022-09-12T14:16:52;3.10;;;1.77;;
64789;SDS011;51223;51.816;5.862;2022-09-12T14:19:20;2.72;;;1.23;;
64789;SDS011;51223;51.816;5.862;2022-09-12T14:21:53;2.60;;;1.77;;
64789;SDS011;51223;51.816;5.862;2022-09-12T14:24:20;3.80;;;1.83;;
64789;SDS011;51223;51.816;5.862;2022-09-12T14:26:52;1.52;;;1.10;;
64789;SDS011;51223;51.816;5.862;2022-09-12T14:29:21;3.03;;;1.77;;
64789;SDS011;51223;51.816;5.862;2022-09-12T14:31:59;1.75;;;1.27;;
64789;SDS011;51223;51.816;5.862;2022-09-12T14:34:27;5.93;;;2.10;;
64789;SDS011;51223;51.816;5.862;2022-09-12T14:36:54;2.65;;;1.85;;
64789;SDS011;51223;51.816;5.862;2022-09-12T14:39:39;1.10;;;1.00;;
64789;SDS011;51223;51.816;5.862;2022-09-12T14:42:14;2.30;;;1.40;;
64789;SDS011;51223;51.816;5.862;2022-09-12T14:44:48;2.15;;;1.38;;
64789;SDS011;51223;51.816;5.862;2022-09-12T14:47:20;4.78;;;1.60;;
64789;SDS011;51223;51.816;5.862;2022-09-12T14:49:49;4.68;;;1.95;;
64789;SDS011;51223;51.816;5.862;2022-09-12T14:52:25;3.83;;;2.00;;
64789;SDS011;51223;51.816;5.862;2022-09-12T14:54:54;1.52;;;1.38;;
64789;SDS011;51223;51.816;5.862;2022-09-12T14:59:52;1.00;;;0.85;;
64789;SDS011;51223;51.816;5.862;2022-09-12T15:02:35;2.92;;;1.98;;
64789;SDS011;51223;51.816;5.862;2022-09-12T15:07:34;4.53;;;1.88;;
64789;SDS011;51223;51.816;5.862;2022-09-12T15:10:04;3.55;;;2.22;;
64789;SDS011;51223;51.816;5.862;2022-09-12T15:13:37;1.02;;;0.80;;
64789;SDS011;51223;51.816;5.862;2022-09-12T15:15:42;1.60;;;1.13;;
64789;SDS011;51223;51.816;5.862;2022-09-12T15:18:09;1.98;;;1.15;;
64789;SDS011;51223;51.816;5.862;2022-09-12T15:20:37;3.80;;;1.55;;
64789;SDS011;51223;51.816;5.862;2022-09-12T15:23:05;3.75;;;2.28;;
64789;SDS011;51223;51.816;5.862;2022-09-12T15:25:35;1.55;;;1.20;;
64789;SDS011;51223;51.816;5.862;2022-09-12T15:28:01;1.75;;;1.23;;
64789;SDS011;51223;51.816;5.862;2022-09-12T15:30:37;2.25;;;1.50;;
64789;SDS011;51223;51.816;5.862;2022-09-12T15:33:03;3.60;;;2.05;;
64789;SDS011;51223;51.816;5.862;2022-09-12T15:35:29;1.48;;;1.35;;
64789;SDS011;51223;51.816;5.862;2022-09-12T15:37:57;1.10;;;1.00;;
64789;SDS011;51223;51.816;5.862;2022-09-12T15:40:23;1.90;;;1.10;;
64789;SDS011;51223;51.816;5.862;2022-09-12T15:42:50;2.10;;;1.58;;
64789;SDS011;51223;51.816;5.862;2022-09-12T15:45:17;3.70;;;1.58;;
64789;SDS011;51223;51.816;5.862;2022-09-12T15:47:46;3.17;;;1.25;;
64789;SDS011;51223;51.816;5.862;2022-09-12T15:50:12;1.73;;;1.15;;
64789;SDS011;51223;51.816;5.862;2022-09-12T15:52:38;4.25;;;2.13;;
64789;SDS011;51223;51.816;5.862;2022-09-12T15:55:04;6.30;;;2.40;;
64789;SDS011;51223;51.816;5.862;2022-09-12T15:57:34;5.43;;;2.10;;
64789;SDS011;51223;51.816;5.862;2022-09-12T16:00:00;0.52;;;0.52;;
64789;SDS011;51223;51.816;5.862;2022-09-12T16:02:26;1.17;;;0.95;;
64789;SDS011;51223;51.816;5.862;2022-09-12T16:04:52;4.60;;;1.70;;
64789;SDS011;51223;51.816;5.862;2022-09-12T16:07:19;1.48;;;1.35;;
64789;SDS011;51223;51.816;5.862;2022-09-12T16:09:45;3.08;;;2.00;;
64789;SDS011;51223;51.816;5.862;2022-09-12T16:12:11;1.90;;;1.33;;
64789;SDS011;51223;51.816;5.862;2022-09-12T16:14:37;2.28;;;1.60;;
64789;SDS011;51223;51.816;5.862;2022-09-12T16:17:03;0.88;;;0.82;;
64789;SDS011;51223;51.816;5.862;2022-09-12T16:19:29;2.55;;;1.17;;
64789;SDS011;51223;51.816;5.862;2022-09-12T16:21:54;1.55;;;1.33;;
64789;SDS011;51223;51.816;5.862;2022-09-12T16:24:20;2.67;;;1.77;;
64789;SDS011;51223;51.816;5.862;2022-09-12T16:26:46;2.08;;;1.70;;
64789;SDS011;51223;51.816;5.862;2022-09-12T16:29:12;1.50;;;1.38;;
64789;SDS011;51223;51.816;5.862;2022-09-12T16:31:38;5.38;;;2.10;;
64789;SDS011;51223;51.816;5.862;2022-09-12T16:34:05;3.10;;;1.90;;
64789;SDS011;51223;51.816;5.862;2022-09-12T16:36:31;2.45;;;1.45;;
64789;SDS011;51223;51.816;5.862;2022-09-12T16:38:57;2.60;;;1.67;;
64789;SDS011;51223;51.816;5.862;2022-09-12T16:41:23;2.85;;;2.03;;
64789;SDS011;51223;51.816;5.862;2022-09-12T16:43:49;2.05;;;1.35;;
64789;SDS011;51223;51.816;5.862;2022-09-12T16:46:16;2.20;;;1.77;;
64789;SDS011;51223;51.816;5.862;2022-09-12T16:48:45;1.67;;;1.20;;
64789;SDS011;51223;51.816;5.862;2022-09-12T16:51:14;2.35;;;1.60;;
64789;SDS011;51223;51.816;5.862;2022-09-12T16:53:41;2.80;;;2.03;;
64789;SDS011;51223;51.816;5.862;2022-09-12T16:56:07;3.33;;;1.85;;
64789;SDS011;51223;51.816;5.862;2022-09-12T16:58:34;1.92;;;1.55;;
64789;SDS011;51223;51.816;5.862;2022-09-12T17:01:02;3.50;;;1.90;;
64789;SDS011;51223;51.816;5.862;2022-09-12T17:03:30;2.35;;;1.70;;
64789;SDS011;51223;51.816;5.862;2022-09-12T17:05:57;4.13;;;1.40;;
64789;SDS011;51223;51.816;5.862;2022-09-12T17:08:27;2.70;;;1.52;;
64789;SDS011;51223;51.816;5.862;2022-09-12T17:11:00;2.55;;;1.83;;
64789;SDS011;51223;51.816;5.862;2022-09-12T17:13:27;2.20;;;1.17;;
64789;SDS011;51223;51.816;5.862;2022-09-12T17:15:53;3.20;;;1.52;;
64789;SDS011;51223;51.816;5.862;2022-09-12T17:18:20;3.08;;;1.50;;
64789;SDS011;51223;51.816;5.862;2022-09-12T17:20:46;1.92;;;1.80;;
64789;SDS011;51223;51.816;5.862;2022-09-12T17:23:12;3.17;;;1.80;;
64789;SDS011;51223;51.816;5.862;2022-09-12T17:25:38;2.83;;;1.63;;
64789;SDS011;51223;51.816;5.862;2022-09-12T17:28:04;5.40;;;1.75;;
64789;SDS011;51223;51.816;5.862;2022-09-12T17:30:33;3.67;;;1.85;;